createdAt,value
2023-11-09T00:00:50.208Z,77.54
2023-11-09T00:05:52.824Z,78.74
2023-11-09T00:11:08.175Z,79.25
2023-11-09T00:16:15.202Z,79.59
2023-11-09T00:21:18.528Z,79.79
2023-11-09T00:26:25.702Z,79.19
2023-11-09T00:31:50.257Z,78.47
2023-11-09T00:36:53.244Z,77.77
2023-11-09T00:42:01.709Z,77.89
2023-11-09T00:47:09.971Z,78.39
2023-11-09T00:52:15.384Z,79.35
2023-11-09T00:57:22.501Z,80.10
2023-11-09T01:02:30.084Z,80.53
2023-11-09T01:07:35.475Z,79.62
2023-11-09T01:12:38.404Z,78.83
2023-11-09T01:18:19.721Z,79.07
2023-11-09T01:23:35.632Z,79.35
2023-11-09T01:28:38.677Z,79.76
2023-11-09T01:33:43.203Z,79.77
2023-11-09T01:38:49.861Z,79.99
2023-11-09T01:44:05.113Z,80.40
2023-11-09T01:49:14.496Z,80.93
2023-11-09T01:54:19.892Z,81.05
2023-11-09T01:59:29.565Z,80.79
2023-11-09T02:04:56.094Z,81.30
2023-11-09T02:10:15.004Z,81.81
2023-11-09T02:15:42.742Z,80.72
2023-11-09T02:21:02.449Z,80.99
2023-11-09T02:26:06.344Z,81.92
2023-11-09T02:31:10.037Z,82.42
2023-11-09T02:36:15.904Z,82.75
2023-11-09T02:41:20.253Z,82.98
2023-11-09T02:46:24.019Z,83.24
2023-11-09T02:51:28.922Z,83.37
2023-11-09T02:56:37.833Z,83.54
2023-11-09T03:01:42.893Z,82.25
2023-11-09T03:06:46.133Z,82.37
2023-11-09T03:11:48.928Z,81.48
2023-11-09T03:16:52.328Z,81.93
2023-11-09T03:21:59.611Z,82.42
2023-11-09T03:27:10.742Z,82.29
2023-11-09T03:32:31.334Z,82.97
2023-11-09T03:37:39.044Z,82.49
2023-11-09T03:42:43.885Z,82.27
2023-11-09T03:47:46.274Z,82.21
2023-11-09T03:52:51.620Z,82.41
2023-11-09T03:57:59.488Z,82.74
2023-11-09T04:03:02.657Z,82.30
2023-11-09T04:08:05.574Z,82.36
2023-11-09T04:13:16.922Z,82.19
2023-11-09T04:18:29.319Z,82.30
2023-11-09T04:23:46.529Z,82.69
2023-11-09T04:28:54.583Z,82.98
2023-11-09T04:34:11.200Z,83.23
2023-11-09T04:39:56.246Z,83.14
2023-11-09T04:45:02.739Z,83.23
2023-11-09T04:50:16.806Z,83.36
2023-11-09T04:55:33.930Z,83.44
2023-11-09T05:01:01.864Z,83.67
2023-11-09T05:06:25.811Z,83.72
2023-11-09T05:12:05.579Z,83.77
2023-11-09T05:17:41.465Z,83.54
2023-11-09T05:22:48.269Z,83.59
2023-11-09T05:28:04.343Z,83.57
2023-11-09T05:33:07.946Z,83.58
2023-11-09T05:38:40.345Z,83.64
2023-11-09T05:43:46.900Z,83.64
2023-11-09T05:49:22.480Z,83.55
2023-11-09T05:54:26.911Z,83.41
2023-11-09T05:59:36.466Z,83.20
2023-11-09T06:04:43.362Z,82.98
2023-11-09T06:09:46.985Z,82.76
2023-11-09T06:14:50.812Z,82.54
2023-11-09T06:19:53.619Z,82.40
2023-11-09T06:25:06.462Z,82.35
2023-11-09T06:30:15.001Z,82.27
2023-11-09T06:35:19.753Z,82.22
2023-11-09T06:40:22.563Z,82.18
2023-11-09T06:45:39.884Z,82.19
2023-11-09T06:50:45.907Z,82.13
2023-11-09T06:55:52.748Z,81.88
2023-11-09T07:01:20.270Z,81.51
2023-11-09T07:06:51.793Z,80.85
2023-11-09T07:12:01.507Z,80.45
2023-11-09T07:17:07.982Z,80.10
2023-11-09T07:23:04.144Z,79.37
2023-11-09T07:28:32.992Z,78.07
2023-11-09T07:34:22.577Z,77.24
2023-11-09T07:39:37.086Z,76.81
2023-11-09T07:44:50.834Z,76.14
2023-11-09T07:50:01.114Z,75.19
2023-11-09T07:55:09.510Z,74.05
2023-11-09T08:00:32.270Z,73.69
2023-11-09T08:05:42.713Z,72.71
2023-11-09T08:10:49.059Z,71.86
2023-11-09T08:15:53.976Z,71.28
2023-11-09T08:21:10.329Z,70.86
2023-11-09T08:26:22.864Z,69.86
2023-11-09T08:31:40.582Z,70.48
2023-11-09T08:36:54.840Z,69.38
2023-11-09T08:42:12.095Z,67.61
2023-11-09T08:47:26.067Z,68.80
2023-11-09T08:52:35.617Z,67.81
2023-11-09T08:57:51.821Z,65.19
2023-11-09T09:03:11.759Z,64.23
2023-11-09T09:08:38.844Z,61.96
2023-11-09T09:13:49.435Z,60.82
2023-11-09T09:18:53.252Z,64.05
2023-11-09T09:24:24.318Z,64.70
2023-11-09T09:29:39.255Z,61.80
2023-11-09T09:34:47.964Z,60.32
2023-11-09T09:40:07.696Z,62.00
2023-11-09T09:45:28.494Z,60.55
2023-11-09T09:50:54.036Z,60.38
2023-11-09T09:56:09.920Z,60.70
2023-11-09T10:01:21.933Z,60.45
2023-11-09T10:06:27.643Z,61.33
2023-11-09T10:11:33.540Z,60.14
2023-11-09T10:16:42.598Z,59.93
2023-11-09T10:21:52.801Z,60.42
2023-11-09T10:27:10.316Z,60.71
2023-11-09T10:32:28.140Z,59.90
2023-11-09T10:37:35.134Z,59.50
2023-11-09T10:42:54.072Z,59.32
2023-11-09T10:48:01.021Z,59.30
2023-11-09T10:53:07.947Z,58.90
2023-11-09T10:58:15.279Z,58.46
2023-11-09T11:03:29.126Z,57.87
2023-11-09T11:08:39.914Z,58.10
2023-11-09T11:13:55.332Z,58.17
2023-11-09T11:19:27.149Z,58.66
2023-11-09T11:24:52.338Z,58.88
2023-11-09T11:29:56.793Z,58.84
2023-11-09T11:35:02.500Z,59.10
2023-11-09T11:40:10.199Z,59.23
2023-11-09T11:45:18.740Z,59.83
2023-11-09T11:50:23.292Z,60.05
2023-11-09T11:55:29.567Z,59.42
2023-11-09T12:00:52.295Z,59.20
2023-11-09T12:06:18.030Z,58.89
2023-11-09T12:11:37.752Z,58.75
2023-11-09T12:17:00.494Z,59.10
2023-11-09T12:22:03.469Z,59.15
2023-11-09T12:27:08.847Z,58.93
2023-11-09T12:32:14.661Z,56.59
2023-11-09T12:37:19.660Z,56.26
2023-11-09T12:42:52.608Z,56.28
2023-11-09T12:47:58.067Z,56.59
2023-11-09T12:53:20.160Z,56.83
2023-11-09T12:58:28.697Z,57.62
2023-11-09T13:03:55.930Z,58.35
2023-11-09T13:09:31.770Z,59.14
2023-11-09T13:14:48.686Z,59.85
2023-11-09T13:19:54.284Z,60.52
2023-11-09T13:25:06.286Z,60.90
2023-11-09T13:30:53.586Z,61.57
2023-11-09T13:36:11.705Z,61.48
2023-11-09T13:41:40.571Z,61.46
2023-11-09T13:47:03.979Z,61.79
2023-11-09T13:52:15.470Z,61.38
2023-11-09T13:57:20.846Z,61.52
2023-11-09T14:02:43.654Z,61.12
2023-11-09T14:08:04.136Z,61.54
2023-11-09T14:13:49.663Z,62.28
2023-11-09T14:19:00.775Z,61.16
2023-11-09T14:24:11.885Z,59.82
2023-11-09T14:29:19.192Z,60.30
2023-11-09T14:34:22.602Z,61.07
2023-11-09T14:39:50.112Z,61.59
2023-11-09T14:44:55.179Z,62.07
2023-11-09T14:50:00.104Z,62.36
2023-11-09T14:55:15.529Z,61.60
2023-11-09T15:00:24.710Z,60.77
2023-11-09T15:05:32.043Z,60.67
2023-11-09T15:10:58.197Z,60.63
2023-11-09T15:16:04.785Z,60.98
2023-11-09T15:21:12.554Z,61.51
2023-11-09T15:26:15.458Z,62.01
2023-11-09T15:31:19.716Z,62.17
2023-11-09T15:36:29.002Z,62.43
2023-11-09T15:41:33.046Z,62.81
2023-11-09T15:46:47.218Z,62.90
2023-11-09T15:51:52.067Z,62.76
2023-11-09T15:56:58.086Z,62.95
2023-11-09T16:02:01.075Z,63.04
2023-11-09T16:07:07.795Z,62.96
2023-11-09T16:12:15.751Z,63.35
2023-11-09T16:17:20.333Z,63.74
2023-11-09T16:22:23.334Z,63.98
2023-11-09T16:27:36.772Z,64.29
2023-11-09T16:32:42.827Z,64.62
2023-11-09T16:37:54.572Z,64.87
2023-11-09T16:42:58.256Z,65.02
2023-11-09T16:48:01.473Z,65.24
2023-11-09T16:53:05.105Z,65.55
2023-11-09T16:58:12.633Z,66.17
2023-11-09T17:03:25.311Z,66.17
2023-11-09T17:08:38.601Z,66.50
2023-11-09T17:13:42.630Z,66.78
2023-11-09T17:18:47.369Z,67.02
2023-11-09T17:23:51.021Z,67.13
2023-11-09T17:28:54.888Z,67.22
2023-11-09T17:33:58.391Z,67.28
2023-11-09T17:39:01.474Z,67.60
2023-11-09T17:44:24.745Z,67.87
2023-11-09T17:49:34.386Z,68.09
2023-11-09T17:54:54.262Z,68.30
2023-11-09T17:59:57.779Z,68.71
2023-11-09T18:05:05.796Z,68.97
2023-11-09T18:10:09.079Z,69.17
2023-11-09T18:15:16.129Z,69.37
2023-11-09T18:20:21.236Z,69.66
2023-11-09T18:25:25.513Z,69.76
2023-11-09T18:30:34.197Z,70.02
2023-11-09T18:35:36.652Z,70.23
2023-11-09T18:40:39.343Z,70.36
2023-11-09T18:46:06.190Z,70.57
2023-11-09T18:51:12.098Z,70.96
2023-11-09T18:56:24.701Z,71.14
2023-11-09T19:01:28.528Z,71.53
2023-11-09T19:06:31.961Z,71.74
2023-11-09T19:11:34.804Z,71.98
2023-11-09T19:16:39.248Z,72.14
2023-11-09T19:27:08.384Z,72.47
2023-11-09T19:32:14.856Z,72.49
2023-11-09T19:37:23.087Z,72.55
2023-11-09T19:42:32.515Z,72.70
2023-11-09T19:47:35.640Z,73.08
2023-11-09T19:52:55.458Z,73.36
2023-11-09T19:57:59.362Z,72.62
2023-11-09T20:03:06.805Z,73.08
2023-11-09T20:08:19.990Z,73.53
2023-11-09T20:13:31.850Z,73.85
2023-11-09T20:18:37.986Z,74.11
2023-11-09T20:23:41.323Z,74.53
2023-11-09T20:29:11.466Z,74.85
2023-11-09T20:34:20.019Z,74.76
2023-11-09T20:39:23.940Z,74.81
2023-11-09T20:44:30.203Z,74.85
2023-11-09T20:49:38.197Z,74.46
2023-11-09T20:54:43.785Z,74.02
2023-11-09T20:59:47.189Z,74.06
2023-11-09T21:05:09.671Z,74.23
2023-11-09T21:10:18.896Z,74.52
2023-11-09T21:15:22.713Z,74.83
2023-11-09T21:20:32.635Z,74.95
2023-11-09T21:25:35.333Z,74.83
2023-11-09T21:30:47.558Z,75.25
2023-11-09T21:35:50.269Z,75.52
2023-11-09T21:40:52.811Z,75.58
2023-11-09T21:46:09.856Z,75.50
2023-11-09T21:51:12.875Z,75.24
2023-11-09T21:56:18.429Z,74.59
2023-11-09T22:01:26.368Z,74.43
2023-11-09T22:06:33.250Z,74.21
2023-11-09T22:11:41.474Z,74.06
2023-11-09T22:16:44.776Z,73.60
2023-11-09T22:21:50.978Z,73.31
2023-11-09T22:26:57.980Z,73.01
2023-11-09T22:32:01.649Z,72.67
2023-11-09T22:37:05.743Z,72.33
2023-11-09T22:42:08.546Z,72.18
2023-11-09T22:47:11.522Z,72.20
2023-11-09T22:52:15.001Z,72.37
2023-11-09T22:57:18.105Z,72.44
2023-11-09T23:02:35.845Z,72.60
2023-11-09T23:07:41.203Z,72.71
2023-11-09T23:12:47.541Z,72.65
2023-11-09T23:17:50.323Z,72.58
2023-11-09T23:23:04.855Z,72.53
2023-11-09T23:28:07.277Z,72.49
2023-11-09T23:33:13.698Z,72.39
2023-11-09T23:38:19.851Z,72.25
2023-11-09T23:43:24.736Z,72.05
2023-11-09T23:48:27.921Z,71.65
2023-11-09T23:53:37.110Z,71.05
2023-11-09T23:58:39.822Z,71.66
